createdAt,value
2022-12-31T00:01:34.040Z,68.32
2022-12-31T00:04:02.170Z,58.85
2022-12-31T00:06:32.105Z,69.07
2022-12-31T00:09:03.838Z,61.97
2022-12-31T00:11:33.022Z,74.25
2022-12-31T00:14:01.179Z,69.80
2022-12-31T00:16:31.198Z,65.85
2022-12-31T00:19:01.898Z,68.63
2022-12-31T00:21:33.075Z,67.80
2022-12-31T00:24:01.264Z,74.80
2022-12-31T00:26:31.673Z,69.18
2022-12-31T00:29:01.263Z,64.03
2022-12-31T00:31:38.595Z,76.80
2022-12-31T00:34:08.556Z,79.57
2022-12-31T00:36:39.654Z,72.75
2022-12-31T00:39:09.467Z,72.72
2022-12-31T00:41:37.631Z,77.68
2022-12-31T00:44:05.906Z,77.85
2022-12-31T00:49:02.073Z,78.47
2022-12-31T00:51:31.671Z,76.72
2022-12-31T00:54:06.222Z,76.60
2022-12-31T00:56:34.565Z,76.97
2022-12-31T00:59:02.773Z,73.70
2022-12-31T01:01:32.639Z,62.70
2022-12-31T01:04:04.898Z,69.07
2022-12-31T01:06:34.649Z,65.63
2022-12-31T01:09:02.868Z,61.00
2022-12-31T01:11:31.500Z,62.17
2022-12-31T01:14:01.810Z,62.85
2022-12-31T01:16:32.231Z,59.35
2022-12-31T01:19:01.764Z,57.80
2022-12-31T01:21:30.533Z,56.83
2022-12-31T01:24:01.119Z,61.97
2022-12-31T01:26:29.806Z,51.50
2022-12-31T01:28:58.230Z,54.30
2022-12-31T01:31:26.886Z,65.50
2022-12-31T01:33:55.747Z,59.15
2022-12-31T01:36:26.606Z,64.30
2022-12-31T01:38:57.131Z,63.83
2022-12-31T01:41:31.568Z,56.95
2022-12-31T01:44:01.425Z,61.38
2022-12-31T01:46:36.239Z,54.10
2022-12-31T01:49:11.858Z,57.80
2022-12-31T01:51:42.301Z,65.53
2022-12-31T01:54:12.879Z,56.35
2022-12-31T01:56:44.496Z,53.70
2022-12-31T01:59:15.386Z,56.75
2022-12-31T02:01:46.785Z,55.47
2022-12-31T02:04:15.963Z,56.95
2022-12-31T02:06:48.434Z,57.10
2022-12-31T02:09:17.048Z,52.50
2022-12-31T02:11:46.612Z,52.40
2022-12-31T02:14:18.479Z,64.38
2022-12-31T02:16:55.797Z,65.20
2022-12-31T02:20:00.168Z,62.35
2022-12-31T02:22:53.322Z,63.33
2022-12-31T02:25:38.049Z,58.90
2022-12-31T02:28:21.439Z,62.60
2022-12-31T02:30:55.554Z,62.35
2022-12-31T02:33:33.532Z,61.78
2022-12-31T02:36:06.647Z,63.53
2022-12-31T02:38:40.124Z,64.80
2022-12-31T02:41:33.634Z,53.72
2022-12-31T02:44:01.873Z,51.78
2022-12-31T02:46:39.420Z,63.92
2022-12-31T02:49:15.333Z,61.90
2022-12-31T02:51:51.347Z,55.75
2022-12-31T02:57:02.163Z,58.10
2022-12-31T02:59:56.518Z,62.53
2022-12-31T03:02:29.184Z,55.85
2022-12-31T03:04:58.918Z,61.58
2022-12-31T03:07:29.052Z,61.53
2022-12-31T03:09:57.491Z,57.67
2022-12-31T03:12:46.169Z,57.40
2022-12-31T03:15:21.863Z,58.47
2022-12-31T03:17:58.025Z,61.92
2022-12-31T03:20:46.638Z,57.03
2022-12-31T03:23:19.088Z,53.75
2022-12-31T03:25:46.752Z,49.83
2022-12-31T03:28:18.750Z,63.13
2022-12-31T03:30:49.455Z,53.45
2022-12-31T03:33:19.737Z,60.10
2022-12-31T03:35:49.041Z,64.63
2022-12-31T03:38:17.925Z,66.45
2022-12-31T03:40:47.927Z,58.30
2022-12-31T03:43:16.285Z,59.33
2022-12-31T03:45:44.503Z,56.13
2022-12-31T03:48:12.737Z,64.32
2022-12-31T03:50:42.297Z,63.47
2022-12-31T03:53:11.268Z,62.45
2022-12-31T03:55:39.474Z,65.20
2022-12-31T03:58:07.905Z,60.63
2022-12-31T04:00:36.075Z,68.22
2022-12-31T04:03:04.320Z,62.13
2022-12-31T04:05:33.785Z,62.83
2022-12-31T04:08:03.357Z,72.20
2022-12-31T04:10:31.556Z,70.75
2022-12-31T04:13:03.126Z,73.55
2022-12-31T04:15:31.361Z,67.40
2022-12-31T04:17:59.570Z,71.03
2022-12-31T04:20:27.806Z,75.90
2022-12-31T04:22:55.941Z,74.63
2022-12-31T04:25:25.507Z,64.07
2022-12-31T04:27:53.649Z,69.65
2022-12-31T04:30:21.745Z,75.18
2022-12-31T04:32:49.903Z,76.75
2022-12-31T04:35:18.264Z,83.72
2022-12-31T04:37:46.399Z,76.30
2022-12-31T04:40:14.612Z,80.85
2022-12-31T04:42:44.743Z,77.78
2022-12-31T04:45:13.142Z,78.32
2022-12-31T04:47:41.284Z,78.97
2022-12-31T04:50:11.543Z,77.43
2022-12-31T04:52:42.893Z,83.55
2022-12-31T04:55:11.640Z,83.53
2022-12-31T04:57:39.895Z,83.13
2022-12-31T05:00:10.939Z,82.90
2022-12-31T05:02:39.321Z,85.50
2022-12-31T05:05:08.449Z,70.90
2022-12-31T05:07:36.628Z,79.75
2022-12-31T05:10:05.951Z,74.68
2022-12-31T05:12:34.231Z,79.82
2022-12-31T05:15:02.579Z,76.25
2022-12-31T05:17:32.197Z,65.05
2022-12-31T05:20:00.641Z,64.07
2022-12-31T05:22:31.261Z,51.45
2022-12-31T05:25:00.689Z,49.38
2022-12-31T05:27:31.247Z,44.40
2022-12-31T05:29:59.732Z,42.60
2022-12-31T05:32:28.288Z,39.83
2022-12-31T05:34:58.102Z,45.00
2022-12-31T05:37:26.442Z,40.45
2022-12-31T05:39:54.679Z,44.83
2022-12-31T05:42:27.265Z,52.00
2022-12-31T05:44:55.547Z,55.63
2022-12-31T05:47:24.111Z,59.92
2022-12-31T05:49:52.325Z,60.53
2022-12-31T05:52:22.054Z,56.05
2022-12-31T05:54:50.243Z,49.47
2022-12-31T05:57:18.417Z,49.30
2022-12-31T05:59:46.623Z,53.20
2022-12-31T06:02:14.983Z,45.70
2022-12-31T06:04:43.176Z,48.45
2022-12-31T06:07:11.455Z,56.80
2022-12-31T06:09:41.127Z,53.17
2022-12-31T06:12:10.294Z,57.80
2022-12-31T06:14:43.782Z,57.10
2022-12-31T06:17:13.831Z,50.75
2022-12-31T06:19:42.119Z,46.05
2022-12-31T06:22:10.362Z,54.45
2022-12-31T06:24:38.469Z,51.20
2022-12-31T06:27:08.146Z,66.18
2022-12-31T06:29:36.294Z,69.70
2022-12-31T06:32:04.665Z,60.38
2022-12-31T06:34:32.841Z,70.13
2022-12-31T06:37:00.947Z,74.63
2022-12-31T06:39:29.352Z,81.45
2022-12-31T06:41:57.813Z,78.78
2022-12-31T06:44:27.416Z,70.85
2022-12-31T06:46:55.640Z,56.95
2022-12-31T06:49:23.850Z,54.10
2022-12-31T06:51:52.016Z,67.05
2022-12-31T06:54:20.647Z,73.07
2022-12-31T06:56:49.290Z,85.38
2022-12-31T06:59:26.370Z,84.63
2022-12-31T07:02:12.816Z,97.72
2022-12-31T07:05:14.208Z,105.68
2022-12-31T07:07:56.626Z,81.63
2022-12-31T07:10:37.335Z,82.80
2022-12-31T07:13:18.673Z,82.15
2022-12-31T07:16:01.742Z,58.20
2022-12-31T07:18:38.152Z,60.88
2022-12-31T07:21:11.937Z,75.70
2022-12-31T07:23:40.650Z,70.47
2022-12-31T07:26:21.379Z,62.50
2022-12-31T07:29:00.499Z,76.60
2022-12-31T07:31:48.116Z,69.28
2022-12-31T07:34:26.544Z,75.43
2022-12-31T07:37:04.551Z,79.10
2022-12-31T07:39:40.346Z,111.88
2022-12-31T07:42:16.287Z,130.82
2022-12-31T07:47:26.943Z,117.50
2022-12-31T07:49:58.262Z,127.20
2022-12-31T07:52:27.390Z,132.43
2022-12-31T07:54:55.631Z,129.18
2022-12-31T07:57:27.470Z,141.75
2022-12-31T08:00:06.165Z,124.40
2022-12-31T08:03:05.061Z,129.30
2022-12-31T08:05:41.043Z,101.00
2022-12-31T08:10:57.849Z,106.43
2022-12-31T08:13:27.000Z,73.63
2022-12-31T08:15:56.156Z,83.10
2022-12-31T08:18:24.792Z,83.68
2022-12-31T08:21:05.639Z,82.38
2022-12-31T08:23:48.336Z,68.07
2022-12-31T08:26:28.362Z,75.30
2022-12-31T08:29:05.929Z,70.50
2022-12-31T08:31:45.322Z,75.63
2022-12-31T08:34:24.135Z,69.55
2022-12-31T08:37:01.461Z,66.32
2022-12-31T08:39:45.350Z,65.15
2022-12-31T08:42:23.357Z,67.70
2022-12-31T08:45:00.729Z,72.80
2022-12-31T08:47:39.993Z,67.35
2022-12-31T08:50:14.459Z,74.50
2022-12-31T08:52:45.898Z,72.50
2022-12-31T08:55:16.744Z,76.13
2022-12-31T08:57:53.600Z,64.43
2022-12-31T09:00:23.143Z,73.38
2022-12-31T09:03:17.981Z,73.88
2022-12-31T09:05:54.884Z,75.78
2022-12-31T09:08:31.767Z,71.60
2022-12-31T09:11:07.715Z,78.65
2022-12-31T09:16:15.266Z,72.78
2022-12-31T09:18:47.170Z,80.70
2022-12-31T09:21:17.112Z,85.82
2022-12-31T09:23:47.336Z,76.75
2022-12-31T09:26:38.854Z,81.25
2022-12-31T09:29:14.306Z,84.38
2022-12-31T09:31:51.090Z,81.22
2022-12-31T09:34:27.163Z,88.28
2022-12-31T09:39:34.198Z,69.57
2022-12-31T09:42:26.784Z,89.40
2022-12-31T09:45:23.993Z,86.25
2022-12-31T09:48:33.992Z,74.60
2022-12-31T09:51:21.678Z,67.55
2022-12-31T09:54:15.087Z,68.88
2022-12-31T09:56:57.164Z,73.80
2022-12-31T09:59:37.456Z,62.75
2022-12-31T10:02:21.648Z,72.93
2022-12-31T10:05:01.352Z,68.95
2022-12-31T10:07:50.382Z,73.68
2022-12-31T10:10:25.214Z,71.82
2022-12-31T10:13:38.158Z,62.95
2022-12-31T10:16:39.601Z,63.15
2022-12-31T10:19:36.492Z,62.28
2022-12-31T10:24:56.097Z,73.57
2022-12-31T10:27:50.633Z,66.88
2022-12-31T10:30:22.540Z,81.55
2022-12-31T10:33:01.518Z,75.07
2022-12-31T10:35:38.183Z,73.57
2022-12-31T10:38:19.644Z,76.82
2022-12-31T10:41:21.430Z,73.07
2022-12-31T10:44:32.333Z,70.07
2022-12-31T10:47:35.352Z,67.43
2022-12-31T10:50:40.268Z,72.05
2022-12-31T10:53:56.211Z,71.95
2022-12-31T10:56:55.357Z,73.50
2022-12-31T10:59:54.328Z,71.90
2022-12-31T11:03:01.709Z,72.13
2022-12-31T11:06:20.040Z,71.32
2022-12-31T11:09:32.705Z,80.55
2022-12-31T11:12:09.784Z,81.63
2022-12-31T11:14:59.131Z,72.78
2022-12-31T11:17:37.090Z,70.85
2022-12-31T11:20:24.158Z,72.97
2022-12-31T11:23:09.611Z,70.00
2022-12-31T11:25:50.566Z,65.35
2022-12-31T11:28:51.089Z,61.22
2022-12-31T11:31:33.865Z,80.28
2022-12-31T11:34:19.170Z,69.97
2022-12-31T11:37:02.575Z,68.22
2022-12-31T11:39:48.441Z,60.70
2022-12-31T11:42:25.981Z,68.78
2022-12-31T11:45:00.895Z,62.30
2022-12-31T11:48:28.702Z,67.80
2022-12-31T11:50:48.048Z,59.00
2022-12-31T11:53:33.069Z,61.33
2022-12-31T11:56:18.983Z,61.25
2022-12-31T11:58:51.195Z,65.07
2022-12-31T12:01:26.138Z,71.70
2022-12-31T12:03:55.465Z,67.28
2022-12-31T12:06:28.675Z,61.22
2022-12-31T12:09:01.176Z,55.40
2022-12-31T12:11:36.038Z,60.45
2022-12-31T12:14:22.374Z,57.97
2022-12-31T12:16:59.162Z,56.50
2022-12-31T12:19:34.846Z,58.55
2022-12-31T12:22:12.862Z,56.60
2022-12-31T12:24:41.681Z,54.65
2022-12-31T12:27:25.205Z,63.85
2022-12-31T12:29:53.433Z,60.90
2022-12-31T12:32:25.064Z,52.30
2022-12-31T12:34:54.216Z,54.50
2022-12-31T12:37:33.514Z,55.30
2022-12-31T12:40:03.372Z,51.75
2022-12-31T12:42:33.654Z,56.50
2022-12-31T12:45:06.339Z,53.75
2022-12-31T12:47:35.708Z,55.30
2022-12-31T12:50:05.146Z,53.50
2022-12-31T12:53:09.382Z,59.67
2022-12-31T12:55:48.028Z,51.92
2022-12-31T12:58:40.039Z,53.70
2022-12-31T13:01:16.091Z,56.30
2022-12-31T13:07:11.731Z,56.22
2022-12-31T13:09:55.288Z,48.67
2022-12-31T13:12:48.976Z,52.65
2022-12-31T13:15:30.120Z,47.15
2022-12-31T13:18:09.137Z,47.20
2022-12-31T13:20:46.263Z,49.17
2022-12-31T13:23:24.101Z,54.83
2022-12-31T13:26:03.174Z,47.35
2022-12-31T13:28:33.297Z,50.45
2022-12-31T13:31:07.255Z,45.45
2022-12-31T13:33:41.461Z,39.72
2022-12-31T13:36:11.687Z,42.67
2022-12-31T13:38:43.489Z,43.47
2022-12-31T13:41:19.157Z,48.85
2022-12-31T13:43:54.793Z,45.30
2022-12-31T13:46:33.527Z,46.58
2022-12-31T13:49:05.472Z,43.50
2022-12-31T13:51:42.355Z,45.28
2022-12-31T13:54:23.267Z,43.60
2022-12-31T13:56:53.374Z,46.65
2022-12-31T13:59:27.536Z,45.67
2022-12-31T14:02:02.004Z,43.05
2022-12-31T14:04:35.146Z,42.00
2022-12-31T14:07:08.905Z,45.40
2022-12-31T14:09:38.513Z,45.05
2022-12-31T14:12:20.655Z,47.90
2022-12-31T14:14:55.670Z,39.22
2022-12-31T14:17:34.588Z,42.43
2022-12-31T14:20:18.314Z,44.28
2022-12-31T14:22:53.162Z,41.92
2022-12-31T14:25:30.753Z,40.58
2022-12-31T14:28:03.083Z,41.55
2022-12-31T14:30:34.331Z,38.65
2022-12-31T14:33:16.672Z,36.80
2022-12-31T14:36:10.623Z,33.72
2022-12-31T14:38:54.179Z,38.55
2022-12-31T14:41:44.730Z,37.28
2022-12-31T14:44:28.456Z,39.80
2022-12-31T14:47:13.226Z,43.90
2022-12-31T14:49:51.288Z,39.25
2022-12-31T14:52:25.278Z,41.75
2022-12-31T14:55:22.975Z,40.33
2022-12-31T15:00:41.191Z,39.40
2022-12-31T15:03:25.548Z,49.22
2022-12-31T15:06:00.257Z,38.15
2022-12-31T15:08:40.899Z,40.38
2022-12-31T15:11:23.885Z,43.40
2022-12-31T15:14:18.243Z,42.80
2022-12-31T15:16:56.030Z,39.80
2022-12-31T15:19:53.391Z,43.13
2022-12-31T15:22:33.529Z,40.38
2022-12-31T15:25:03.174Z,40.38
2022-12-31T15:27:36.952Z,40.92
2022-12-31T15:30:07.383Z,67.15
2022-12-31T15:32:38.167Z,100.70
2022-12-31T15:35:27.412Z,100.53
2022-12-31T15:38:02.287Z,108.32
2022-12-31T15:40:31.811Z,86.65
2022-12-31T15:43:10.474Z,86.30
2022-12-31T15:45:40.929Z,86.43
2022-12-31T15:48:16.585Z,82.65
2022-12-31T15:50:46.107Z,78.20
2022-12-31T15:53:28.439Z,85.18
2022-12-31T15:55:59.434Z,80.60
2022-12-31T15:58:32.185Z,84.82
2022-12-31T16:01:09.920Z,87.50
2022-12-31T16:03:38.586Z,89.82
2022-12-31T16:06:13.366Z,87.45
2022-12-31T16:08:47.019Z,79.50
2022-12-31T16:11:16.276Z,87.18
2022-12-31T16:13:47.776Z,80.22
2022-12-31T16:16:23.579Z,83.70
2022-12-31T16:18:53.304Z,88.13
2022-12-31T16:21:27.098Z,98.35
2022-12-31T16:23:58.441Z,104.70
2022-12-31T16:26:32.668Z,97.00
2022-12-31T16:29:01.507Z,95.22
2022-12-31T16:31:33.098Z,140.45
2022-12-31T16:34:06.281Z,107.13
2022-12-31T16:36:35.537Z,93.07
2022-12-31T16:39:25.459Z,103.43
2022-12-31T16:42:07.956Z,85.43
2022-12-31T16:44:36.566Z,81.93
2022-12-31T16:47:07.234Z,93.13
2022-12-31T16:49:39.060Z,108.70
2022-12-31T16:52:09.974Z,102.40
2022-12-31T16:54:45.713Z,94.57
2022-12-31T16:57:21.331Z,103.32
2022-12-31T16:59:53.252Z,96.78
2022-12-31T17:02:24.296Z,98.57
2022-12-31T17:04:56.387Z,122.82
2022-12-31T17:07:43.629Z,124.38
2022-12-31T17:10:21.631Z,132.60
2022-12-31T17:15:46.229Z,106.72
2022-12-31T17:18:19.717Z,112.63
2022-12-31T17:20:48.994Z,119.00
2022-12-31T17:23:25.249Z,118.85
2022-12-31T17:26:02.118Z,115.05
2022-12-31T17:28:38.669Z,99.45
2022-12-31T17:31:29.206Z,113.32
2022-12-31T17:34:08.322Z,119.50
2022-12-31T17:36:38.570Z,107.28
2022-12-31T17:39:18.624Z,109.88
2022-12-31T17:41:50.829Z,113.95
2022-12-31T17:44:22.735Z,111.05
2022-12-31T17:46:52.133Z,116.88
2022-12-31T17:49:27.218Z,124.15
2022-12-31T17:51:55.513Z,125.82
2022-12-31T17:54:23.727Z,127.55
2022-12-31T17:56:53.769Z,128.10
2022-12-31T17:59:24.885Z,135.85
2022-12-31T18:01:53.301Z,132.68
2022-12-31T18:04:21.878Z,146.00
2022-12-31T18:06:50.102Z,188.63
2022-12-31T18:09:18.334Z,194.60
2022-12-31T18:11:47.027Z,189.98
2022-12-31T18:14:17.505Z,173.30
2022-12-31T18:16:46.104Z,174.20
2022-12-31T18:19:45.820Z,149.63
2022-12-31T18:22:08.188Z,136.50
2022-12-31T18:24:36.627Z,135.35
2022-12-31T18:27:05.377Z,150.05
2022-12-31T18:29:36.438Z,133.70
2022-12-31T18:32:05.091Z,124.97
2022-12-31T18:34:33.209Z,112.85
2022-12-31T18:37:01.477Z,109.78
2022-12-31T18:39:29.833Z,118.35
2022-12-31T18:41:58.015Z,101.68
2022-12-31T18:44:26.221Z,111.70
2022-12-31T18:46:55.842Z,106.50
2022-12-31T18:49:24.191Z,100.15
2022-12-31T18:51:54.318Z,97.93
2022-12-31T18:54:22.673Z,98.68
2022-12-31T18:56:56.811Z,103.97
2022-12-31T18:59:26.581Z,102.10
2022-12-31T19:01:56.412Z,373.92
2022-12-31T19:04:28.297Z,322.55
2022-12-31T19:06:57.233Z,208.40
2022-12-31T19:12:16.740Z,191.55
2022-12-31T19:14:45.666Z,115.22
2022-12-31T19:17:15.656Z,108.85
2022-12-31T19:19:43.965Z,113.53
2022-12-31T19:22:16.322Z,112.72
2022-12-31T19:24:44.780Z,145.75
2022-12-31T19:27:17.102Z,264.77
2022-12-31T19:29:45.695Z,213.50
2022-12-31T19:32:15.298Z,146.68
2022-12-31T19:34:44.672Z,141.05
2022-12-31T19:37:22.259Z,129.10
2022-12-31T19:39:50.681Z,145.98
2022-12-31T19:42:19.000Z,127.57
2022-12-31T19:44:47.302Z,119.13
2022-12-31T19:47:18.054Z,129.15
2022-12-31T19:49:46.768Z,147.77
2022-12-31T19:52:15.009Z,148.45
2022-12-31T19:54:43.248Z,163.43
2022-12-31T19:57:11.468Z,155.05
2022-12-31T19:59:39.750Z,164.43
2022-12-31T20:02:08.655Z,139.20
2022-12-31T20:04:38.439Z,135.98
2022-12-31T20:07:06.777Z,139.95
2022-12-31T20:09:35.088Z,157.23
2022-12-31T20:12:03.407Z,196.57
2022-12-31T20:14:33.008Z,169.75
2022-12-31T20:17:01.400Z,217.02
2022-12-31T20:19:30.743Z,304.98
2022-12-31T20:22:00.878Z,272.20
2022-12-31T20:24:31.315Z,204.13
2022-12-31T20:27:00.116Z,194.00
2022-12-31T20:29:28.721Z,161.88
2022-12-31T20:32:01.840Z,162.95
2022-12-31T20:34:30.923Z,176.85
2022-12-31T20:37:00.699Z,153.98
2022-12-31T20:39:29.068Z,161.65
2022-12-31T20:41:57.423Z,130.60
2022-12-31T20:44:25.889Z,134.63
2022-12-31T20:46:54.310Z,137.80
2022-12-31T20:49:37.518Z,137.77
2022-12-31T20:52:12.683Z,119.50
2022-12-31T20:54:41.478Z,140.85
2022-12-31T20:57:10.121Z,123.97
2022-12-31T20:59:38.613Z,113.75
2022-12-31T21:02:29.490Z,103.03
2022-12-31T21:04:56.098Z,107.85
2022-12-31T21:07:26.159Z,106.15
2022-12-31T21:09:54.413Z,115.35
2022-12-31T21:12:40.405Z,123.18
2022-12-31T21:15:09.991Z,136.30
2022-12-31T21:17:38.219Z,161.18
2022-12-31T21:20:08.000Z,118.28
2022-12-31T21:22:37.777Z,142.73
2022-12-31T21:25:06.897Z,129.27
2022-12-31T21:27:37.055Z,136.00
2022-12-31T21:30:22.093Z,144.60
2022-12-31T21:32:50.618Z,308.10
2022-12-31T21:38:10.524Z,249.77
2022-12-31T21:40:40.163Z,158.95
2022-12-31T21:43:08.722Z,116.80
2022-12-31T21:45:37.075Z,110.82
2022-12-31T21:48:25.194Z,150.77
2022-12-31T21:50:55.192Z,111.72
2022-12-31T21:53:32.291Z,80.43
2022-12-31T21:56:11.676Z,89.45
2022-12-31T21:58:41.952Z,94.25
2022-12-31T22:01:34.162Z,100.57
2022-12-31T22:04:02.900Z,109.00
2022-12-31T22:06:31.454Z,104.30
2022-12-31T22:09:01.448Z,93.47
2022-12-31T22:11:30.583Z,94.32
2022-12-31T22:13:59.095Z,96.28
2022-12-31T22:16:27.678Z,95.25
2022-12-31T22:18:57.244Z,104.60
2022-12-31T22:21:32.015Z,93.57
2022-12-31T22:24:03.197Z,89.50
2022-12-31T22:26:31.618Z,88.70
2022-12-31T22:29:00.226Z,85.32
2022-12-31T22:31:33.134Z,89.03
2022-12-31T22:34:02.251Z,94.82
2022-12-31T22:36:30.884Z,94.47
2022-12-31T22:39:01.735Z,97.80
2022-12-31T22:41:30.660Z,101.38
2022-12-31T22:44:04.160Z,115.95
2022-12-31T22:46:33.911Z,102.15
2022-12-31T22:49:03.675Z,113.57
2022-12-31T22:51:56.550Z,112.32
2022-12-31T22:54:22.514Z,104.35
2022-12-31T22:56:51.350Z,103.70
2022-12-31T22:59:19.670Z,101.43
2022-12-31T23:01:48.356Z,99.50
2022-12-31T23:04:17.100Z,96.72
2022-12-31T23:06:47.448Z,110.72
2022-12-31T23:09:35.842Z,98.30
2022-12-31T23:12:09.796Z,89.75
2022-12-31T23:14:56.862Z,121.35
2022-12-31T23:17:44.480Z,112.55
2022-12-31T23:20:33.739Z,110.15
2022-12-31T23:23:12.608Z,311.27
2022-12-31T23:25:43.444Z,188.98
2022-12-31T23:28:17.512Z,205.98
2022-12-31T23:30:46.475Z,299.67
2022-12-31T23:33:17.473Z,304.52
2022-12-31T23:35:46.321Z,228.10
2022-12-31T23:38:16.791Z,171.32
2022-12-31T23:40:45.296Z,120.35
2022-12-31T23:43:21.186Z,129.90
2022-12-31T23:48:17.880Z,130.57
2022-12-31T23:50:52.500Z,112.50
2022-12-31T23:53:21.581Z,119.10
2022-12-31T23:55:49.970Z,147.10
2022-12-31T23:58:19.798Z,131.85
